createdAt,value
2019-05-20T00:00:42.738Z,6.80
2019-05-20T00:03:16.159Z,6.83
2019-05-20T00:05:49.697Z,7.13
2019-05-20T00:08:23.374Z,6.80
2019-05-20T00:10:56.815Z,7.30
2019-05-20T00:13:30.236Z,7.30
2019-05-20T00:16:03.663Z,7.10
2019-05-20T00:18:37.094Z,7.10
2019-05-20T00:21:10.789Z,6.63
2019-05-20T00:23:44.283Z,7.10
2019-05-20T00:26:17.718Z,7.57
2019-05-20T00:28:51.131Z,7.57
2019-05-20T00:31:24.589Z,7.20
2019-05-20T00:33:58.003Z,7.57
2019-05-20T00:36:31.431Z,7.80
2019-05-20T00:39:16.909Z,7.23
2019-05-20T00:41:50.612Z,7.60
2019-05-20T00:44:24.054Z,7.60
2019-05-20T00:46:57.633Z,6.80
2019-05-20T00:49:31.149Z,7.37
2019-05-20T00:52:04.617Z,7.40
2019-05-20T00:54:38.273Z,7.50
2019-05-20T00:57:11.772Z,7.50
2019-05-20T00:59:45.197Z,8.07
2019-05-20T01:02:18.995Z,7.33
2019-05-20T01:04:52.408Z,7.40
2019-05-20T01:07:25.991Z,7.83
2019-05-20T01:09:59.398Z,7.70
2019-05-20T01:12:32.827Z,7.17
2019-05-20T01:15:06.984Z,7.27
2019-05-20T01:17:40.412Z,7.50
2019-05-20T01:20:14.767Z,7.60
2019-05-20T01:22:48.196Z,7.60
2019-05-20T01:25:21.611Z,7.50
2019-05-20T01:27:55.056Z,6.93
2019-05-20T01:30:28.910Z,7.60
2019-05-20T01:33:13.251Z,7.33
2019-05-20T01:35:37.531Z,7.87
2019-05-20T01:38:10.959Z,7.27
2019-05-20T01:40:44.393Z,7.60
2019-05-20T01:43:17.835Z,7.63
2019-05-20T01:45:51.247Z,7.23
2019-05-20T01:48:24.678Z,7.53
2019-05-20T01:50:58.098Z,6.70
2019-05-20T01:53:31.528Z,7.17
2019-05-20T01:56:04.944Z,7.70
2019-05-20T01:58:39.762Z,7.77
2019-05-20T02:01:13.383Z,7.40
2019-05-20T02:03:46.827Z,7.60
2019-05-20T02:06:20.241Z,7.80
2019-05-20T02:08:53.679Z,7.53
2019-05-20T02:11:27.103Z,7.37
2019-05-20T02:14:04.847Z,7.40
2019-05-20T02:16:38.267Z,7.20
2019-05-20T02:19:11.712Z,7.30
2019-05-20T02:21:45.136Z,6.57
2019-05-20T02:24:18.568Z,7.67
2019-05-20T02:26:51.993Z,7.47
2019-05-20T02:29:25.435Z,7.37
2019-05-20T02:31:58.844Z,7.37
2019-05-20T02:34:32.281Z,7.07
2019-05-20T02:37:05.688Z,6.80
2019-05-20T02:39:39.201Z,7.00
2019-05-20T02:42:12.616Z,6.73
2019-05-20T02:44:46.049Z,6.83
2019-05-20T02:47:19.481Z,6.80
2019-05-20T02:49:52.901Z,8.03
2019-05-20T02:52:26.336Z,7.60
2019-05-20T02:54:59.753Z,7.60
2019-05-20T02:57:33.189Z,8.20
2019-05-20T03:00:08.033Z,7.77
2019-05-20T03:02:41.464Z,7.77
2019-05-20T03:05:14.877Z,7.90
2019-05-20T03:07:48.313Z,8.23
2019-05-20T03:10:21.804Z,7.67
2019-05-20T03:12:55.241Z,11.87
2019-05-20T03:15:28.661Z,8.10
2019-05-20T03:18:02.100Z,7.60
2019-05-20T03:20:35.582Z,8.30
2019-05-20T03:23:09.181Z,6.80
2019-05-20T03:25:43.056Z,7.43
2019-05-20T03:28:16.491Z,11.30
2019-05-20T03:30:50.089Z,8.50
2019-05-20T03:33:23.886Z,8.10
2019-05-20T03:35:57.338Z,7.57
2019-05-20T03:38:30.767Z,8.40
2019-05-20T03:41:04.262Z,10.90
2019-05-20T03:43:37.714Z,7.80
2019-05-20T03:46:11.139Z,8.00
2019-05-20T03:48:44.571Z,8.70
2019-05-20T03:51:17.992Z,7.77
2019-05-20T03:53:51.436Z,7.80
2019-05-20T03:56:24.858Z,8.40
2019-05-20T03:58:58.292Z,7.70
2019-05-20T04:01:31.719Z,7.90
2019-05-20T04:04:05.320Z,8.83
2019-05-20T04:06:38.736Z,8.10
2019-05-20T04:09:12.167Z,7.47
2019-05-20T04:11:45.611Z,10.40
2019-05-20T04:14:19.096Z,9.00
2019-05-20T04:16:52.520Z,8.67
2019-05-20T04:19:25.955Z,9.17
2019-05-20T04:21:59.374Z,8.33
2019-05-20T04:24:32.800Z,8.57
2019-05-20T04:27:06.231Z,8.23
2019-05-20T04:29:39.657Z,9.53
2019-05-20T04:32:13.077Z,9.50
2019-05-20T04:34:46.518Z,8.07
2019-05-20T04:37:19.933Z,8.00
2019-05-20T04:39:53.365Z,7.80
2019-05-20T04:42:26.792Z,8.40
2019-05-20T04:45:00.221Z,9.07
2019-05-20T04:47:33.720Z,8.77
2019-05-20T04:50:08.907Z,8.10
2019-05-20T04:52:42.381Z,9.17
2019-05-20T04:55:15.821Z,9.87
2019-05-20T04:57:49.241Z,8.93
2019-05-20T05:00:48.316Z,9.27
2019-05-20T05:03:22.408Z,9.37
2019-05-20T05:05:56.082Z,9.50
2019-05-20T05:08:29.583Z,9.20
2019-05-20T05:11:03.084Z,9.80
2019-05-20T05:13:36.510Z,10.43
2019-05-20T05:16:09.945Z,9.40
2019-05-20T05:18:43.356Z,9.67
2019-05-20T05:21:16.872Z,9.83
2019-05-20T05:23:58.699Z,9.90
2019-05-20T05:26:25.759Z,9.97
2019-05-20T05:28:59.167Z,9.93
2019-05-20T05:31:32.605Z,10.93
2019-05-20T05:34:06.036Z,9.87
2019-05-20T05:36:39.455Z,9.67
2019-05-20T05:39:12.955Z,10.00
2019-05-20T05:41:46.411Z,9.67
2019-05-20T05:44:20.026Z,9.13
2019-05-20T05:46:53.437Z,8.77
2019-05-20T05:49:26.871Z,8.33
2019-05-20T05:52:00.283Z,9.40
2019-05-20T05:54:33.724Z,9.27
2019-05-20T05:57:07.369Z,9.03
2019-05-20T05:59:40.800Z,8.07
2019-05-20T06:02:14.245Z,8.27
2019-05-20T06:04:47.675Z,8.43
2019-05-20T06:07:21.095Z,8.00
2019-05-20T06:09:54.536Z,8.20
2019-05-20T06:12:28.124Z,8.10
2019-05-20T06:15:01.552Z,8.30
2019-05-20T06:17:34.975Z,8.63
2019-05-20T06:20:09.744Z,7.97
2019-05-20T06:22:43.340Z,8.33
2019-05-20T06:25:17.312Z,8.33
2019-05-20T06:27:50.756Z,10.10
2019-05-20T06:30:36.209Z,9.00
2019-05-20T06:33:10.100Z,7.90
2019-05-20T06:35:43.763Z,7.40
2019-05-20T06:38:34.729Z,8.67
2019-05-20T06:41:08.680Z,15.27
2019-05-20T06:43:42.108Z,7.93
2019-05-20T06:46:15.547Z,7.53
2019-05-20T06:48:48.968Z,7.60
2019-05-20T06:51:22.408Z,7.20
2019-05-20T06:53:56.112Z,7.00
2019-05-20T06:56:29.570Z,7.67
2019-05-20T06:59:03.125Z,7.60
2019-05-20T07:01:36.665Z,7.27
2019-05-20T07:04:10.085Z,7.33
2019-05-20T07:06:47.214Z,7.30
2019-05-20T07:09:18.667Z,7.03
2019-05-20T07:11:53.282Z,7.07
2019-05-20T07:14:27.096Z,7.30
2019-05-20T07:17:00.532Z,7.93
2019-05-20T07:19:33.944Z,6.93
2019-05-20T07:22:07.386Z,7.40
2019-05-20T07:24:40.961Z,7.33
2019-05-20T07:27:14.392Z,7.10
2019-05-20T07:29:47.805Z,11.30
2019-05-20T07:32:21.264Z,6.50
2019-05-20T07:34:54.677Z,6.93
2019-05-20T07:37:28.200Z,6.33
2019-05-20T07:40:01.909Z,7.70
2019-05-20T07:42:35.527Z,7.03
2019-05-20T07:45:09.752Z,8.77
2019-05-20T07:47:43.526Z,9.00
2019-05-20T07:50:18.084Z,8.23
2019-05-20T07:52:51.520Z,8.00
2019-05-20T07:55:27.760Z,7.93
2019-05-20T07:58:04.431Z,7.13
2019-05-20T08:00:38.264Z,7.20
2019-05-20T08:03:11.901Z,7.30
2019-05-20T08:05:45.339Z,7.90
2019-05-20T08:08:18.843Z,7.87
2019-05-20T08:10:52.278Z,8.60
2019-05-20T08:13:25.798Z,8.10
2019-05-20T08:15:59.212Z,7.83
2019-05-20T08:18:32.757Z,7.60
2019-05-20T08:21:06.180Z,8.40
2019-05-20T08:23:39.606Z,7.77
2019-05-20T08:26:13.064Z,7.90
2019-05-20T08:28:46.550Z,7.70
2019-05-20T08:31:19.960Z,8.30
2019-05-20T08:33:53.410Z,8.17
2019-05-20T08:36:26.970Z,8.63
2019-05-20T08:39:00.460Z,8.93
2019-05-20T08:41:33.922Z,9.00
2019-05-20T08:44:07.393Z,9.50
2019-05-20T08:46:40.991Z,9.43
2019-05-20T08:49:14.479Z,8.60
2019-05-20T08:51:47.914Z,9.20
2019-05-20T08:54:21.349Z,9.17
2019-05-20T08:56:54.768Z,8.90
2019-05-20T08:59:28.240Z,9.33
2019-05-20T09:02:01.664Z,9.23
2019-05-20T09:04:35.088Z,9.20
2019-05-20T09:07:08.546Z,9.37
2019-05-20T09:09:41.980Z,9.03
2019-05-20T09:12:15.436Z,9.93
2019-05-20T09:14:48.861Z,10.07
2019-05-20T09:17:22.489Z,9.90
2019-05-20T09:19:55.912Z,9.43
2019-05-20T09:22:29.348Z,9.43
2019-05-20T09:25:03.244Z,8.97
2019-05-20T09:27:37.150Z,9.00
2019-05-20T09:30:12.813Z,9.00
2019-05-20T09:32:46.816Z,8.77
2019-05-20T09:35:20.619Z,11.07
2019-05-20T09:37:54.059Z,10.27
2019-05-20T09:40:58.092Z,10.83
2019-05-20T09:43:31.615Z,9.50
2019-05-20T09:46:07.947Z,10.20
2019-05-20T09:48:40.192Z,10.53
2019-05-20T09:51:13.692Z,11.20
2019-05-20T09:53:47.129Z,10.47
2019-05-20T09:56:20.557Z,12.40
2019-05-20T09:58:53.992Z,11.30
2019-05-20T10:01:27.417Z,11.90
2019-05-20T10:04:00.847Z,13.50
2019-05-20T10:06:34.347Z,14.70
2019-05-20T10:09:07.876Z,11.27
2019-05-20T10:11:41.372Z,10.53
2019-05-20T10:14:14.819Z,12.90
2019-05-20T10:16:48.252Z,14.47
2019-05-20T10:19:21.710Z,15.03
2019-05-20T10:21:55.119Z,13.67
2019-05-20T10:24:28.563Z,13.60
2019-05-20T10:27:01.987Z,12.03
2019-05-20T10:29:35.424Z,12.23
2019-05-20T10:32:08.845Z,11.73
2019-05-20T10:34:42.276Z,10.60
2019-05-20T10:37:15.703Z,10.83
2019-05-20T10:39:49.175Z,11.73
2019-05-20T10:42:22.607Z,11.00
2019-05-20T10:44:56.115Z,14.50
2019-05-20T10:47:29.548Z,11.27
2019-05-20T10:50:03.625Z,13.50
2019-05-20T10:52:37.048Z,12.03
2019-05-20T10:55:11.700Z,10.23
2019-05-20T10:57:45.122Z,10.03
2019-05-20T11:00:19.293Z,9.53
2019-05-20T11:02:52.791Z,9.57
2019-05-20T11:05:26.236Z,11.40
2019-05-20T11:07:59.659Z,9.27
2019-05-20T11:10:33.168Z,10.63
2019-05-20T11:13:06.601Z,9.60
2019-05-20T11:15:40.251Z,9.23
2019-05-20T11:18:13.682Z,9.80
2019-05-20T11:20:47.108Z,9.97
2019-05-20T11:23:20.536Z,9.70
2019-05-20T11:25:53.971Z,10.30
2019-05-20T11:28:27.411Z,9.70
2019-05-20T11:31:00.840Z,11.67
2019-05-20T11:33:34.278Z,9.13
2019-05-20T11:36:07.699Z,8.10
2019-05-20T11:38:41.120Z,8.43
2019-05-20T11:41:14.552Z,8.90
2019-05-20T11:43:47.994Z,8.70
2019-05-20T11:46:21.498Z,9.20
2019-05-20T11:48:55.012Z,8.77
2019-05-20T11:51:28.494Z,8.57
2019-05-20T11:54:02.032Z,8.87
2019-05-20T11:56:35.468Z,9.60
2019-05-20T11:59:09.247Z,9.50
2019-05-20T12:01:42.728Z,8.27
2019-05-20T12:04:16.200Z,8.23
2019-05-20T12:06:49.622Z,8.73
2019-05-20T12:09:23.076Z,8.93
2019-05-20T12:11:56.631Z,8.50
2019-05-20T12:14:30.140Z,8.53
2019-05-20T12:17:03.626Z,9.53
2019-05-20T12:19:37.056Z,8.37
2019-05-20T12:22:10.498Z,8.43
2019-05-20T12:24:44.003Z,8.50
2019-05-20T12:27:17.425Z,8.17
2019-05-20T12:29:50.875Z,8.70
2019-05-20T12:32:24.303Z,9.20
2019-05-20T12:34:57.735Z,8.90
2019-05-20T12:37:31.230Z,9.00
2019-05-20T12:40:08.085Z,8.43
2019-05-20T12:42:41.717Z,9.10
2019-05-20T12:45:15.495Z,9.07
2019-05-20T12:47:48.916Z,9.07
2019-05-20T12:50:23.512Z,9.53
2019-05-20T12:52:56.943Z,8.97
2019-05-20T12:55:30.391Z,9.83
2019-05-20T12:58:03.874Z,10.30
2019-05-20T13:00:37.574Z,10.37
2019-05-20T13:03:11.015Z,10.87
2019-05-20T13:05:44.518Z,11.00
2019-05-20T13:08:18.045Z,9.87
2019-05-20T13:10:51.491Z,9.63
2019-05-20T13:13:24.993Z,10.27
2019-05-20T13:15:58.441Z,11.30
2019-05-20T13:18:31.859Z,10.10
2019-05-20T13:21:05.363Z,10.30
2019-05-20T13:23:38.828Z,10.87
2019-05-20T13:26:12.260Z,11.27
2019-05-20T13:28:45.686Z,12.17
2019-05-20T13:31:19.129Z,11.53
2019-05-20T13:33:52.549Z,11.87
2019-05-20T13:36:25.980Z,11.60
2019-05-20T13:38:59.409Z,11.07
2019-05-20T13:41:32.844Z,12.47
2019-05-20T13:44:06.276Z,12.60
2019-05-20T13:46:39.708Z,13.80
2019-05-20T13:49:13.136Z,13.80
2019-05-20T13:51:46.571Z,12.97
2019-05-20T13:54:20.015Z,14.50
2019-05-20T13:56:53.469Z,15.73
2019-05-20T13:59:26.876Z,15.10
2019-05-20T14:02:00.332Z,15.20
2019-05-20T14:04:33.744Z,16.23
2019-05-20T14:07:07.277Z,16.63
2019-05-20T14:09:40.731Z,16.63
2019-05-20T14:12:14.239Z,16.77
2019-05-20T14:14:47.673Z,15.27
2019-05-20T14:17:21.144Z,14.27
2019-05-20T14:19:54.576Z,11.13
2019-05-20T14:22:28.077Z,10.73
2019-05-20T14:25:01.512Z,10.40
2019-05-20T14:27:34.947Z,9.73
2019-05-20T14:30:09.919Z,8.60
2019-05-20T14:32:43.333Z,8.50
2019-05-20T14:35:16.766Z,9.10
2019-05-20T14:37:50.193Z,6.67
2019-05-20T14:40:23.800Z,5.70
2019-05-20T14:42:57.220Z,7.43
2019-05-20T14:45:30.696Z,7.90
2019-05-20T14:48:04.241Z,6.83
2019-05-20T14:50:37.712Z,6.37
2019-05-20T14:53:11.136Z,7.13
2019-05-20T14:55:44.577Z,9.90
2019-05-20T14:58:18.004Z,10.90
2019-05-20T15:00:51.447Z,12.90
2019-05-20T15:03:25.827Z,14.53
2019-05-20T15:05:59.329Z,16.03
2019-05-20T15:08:34.472Z,15.30
2019-05-20T15:11:07.972Z,14.87
2019-05-20T15:13:41.412Z,14.63
2019-05-20T15:16:14.851Z,13.90
2019-05-20T15:18:48.286Z,13.90
2019-05-20T15:21:21.747Z,14.30
2019-05-20T15:23:55.262Z,11.00
2019-05-20T15:26:28.750Z,10.47
2019-05-20T15:29:03.290Z,9.13
2019-05-20T15:31:37.396Z,9.87
2019-05-20T15:34:10.815Z,11.13
2019-05-20T15:36:44.353Z,12.03
2019-05-20T15:39:18.160Z,11.80
2019-05-20T15:41:51.588Z,7.87
2019-05-20T15:44:25.019Z,7.80
2019-05-20T15:46:58.449Z,6.27
2019-05-20T15:49:31.868Z,5.70
2019-05-20T15:52:05.307Z,6.13
2019-05-20T15:54:38.781Z,6.00
2019-05-20T15:57:12.212Z,5.90
2019-05-20T15:59:46.755Z,6.00
2019-05-20T16:02:20.535Z,6.00
2019-05-20T16:04:53.952Z,5.60
2019-05-20T16:07:27.381Z,5.87
2019-05-20T16:10:00.802Z,5.77
2019-05-20T16:12:34.519Z,5.67
2019-05-20T16:15:08.759Z,5.37
2019-05-20T16:17:42.192Z,5.73
2019-05-20T16:20:16.213Z,5.60
2019-05-20T16:22:49.650Z,5.00
2019-05-20T16:25:23.150Z,4.93
2019-05-20T16:27:56.580Z,6.23
2019-05-20T16:30:30.023Z,5.70
2019-05-20T16:33:03.458Z,5.93
2019-05-20T16:35:36.881Z,5.67
2019-05-20T16:38:10.316Z,5.47
2019-05-20T16:40:43.908Z,5.80
2019-05-20T16:43:17.368Z,6.03
2019-05-20T16:45:50.860Z,5.73
2019-05-20T16:48:24.452Z,6.00
2019-05-20T16:50:57.874Z,6.00
2019-05-20T16:53:31.304Z,6.37
2019-05-20T16:56:04.728Z,6.77
2019-05-20T16:58:38.151Z,6.33
2019-05-20T17:01:11.576Z,6.37
2019-05-20T17:03:45.026Z,6.83
2019-05-20T17:06:18.439Z,7.30
2019-05-20T17:08:51.867Z,6.50
2019-05-20T17:11:25.341Z,7.73
2019-05-20T17:13:58.818Z,7.60
2019-05-20T17:16:32.231Z,7.70
2019-05-20T17:19:05.675Z,8.10
2019-05-20T17:21:39.095Z,8.37
2019-05-20T17:24:12.547Z,8.13
2019-05-20T17:26:45.973Z,8.77
2019-05-20T17:29:19.404Z,8.27
2019-05-20T17:31:52.827Z,8.50
2019-05-20T17:34:26.265Z,8.00
2019-05-20T17:36:59.700Z,8.47
2019-05-20T17:39:33.147Z,8.80
2019-05-20T17:42:06.964Z,8.57
2019-05-20T17:44:40.572Z,9.13
2019-05-20T17:47:13.990Z,9.90
2019-05-20T17:49:47.495Z,10.10
2019-05-20T17:52:20.920Z,10.30
2019-05-20T17:54:54.356Z,10.07
2019-05-20T17:57:27.869Z,10.50
2019-05-20T18:00:01.531Z,11.07
2019-05-20T18:02:35.032Z,10.93
2019-05-20T18:05:09.607Z,11.00
2019-05-20T18:07:43.199Z,9.97
2019-05-20T18:10:18.926Z,10.40
2019-05-20T18:12:52.357Z,9.83
2019-05-20T18:15:25.780Z,9.97
2019-05-20T18:17:59.244Z,10.63
2019-05-20T18:20:32.671Z,10.63
2019-05-20T18:23:06.095Z,10.37
2019-05-20T18:25:39.533Z,10.17
2019-05-20T18:28:13.015Z,10.20
2019-05-20T18:30:46.555Z,9.07
2019-05-20T18:33:19.997Z,8.83
2019-05-20T18:35:53.484Z,9.40
2019-05-20T18:38:26.917Z,10.60
2019-05-20T18:41:00.343Z,10.57
2019-05-20T18:43:33.789Z,10.37
2019-05-20T18:46:07.209Z,10.40
2019-05-20T18:48:40.645Z,11.07
2019-05-20T18:51:14.076Z,11.23
2019-05-20T18:53:47.778Z,12.40
2019-05-20T18:56:21.204Z,12.73
2019-05-20T18:58:54.649Z,13.23
2019-05-20T19:01:28.348Z,13.67
2019-05-20T19:04:01.804Z,15.17
2019-05-20T19:06:35.300Z,16.07
2019-05-20T19:09:09.312Z,16.27
2019-05-20T19:11:42.735Z,16.90
2019-05-20T19:14:16.203Z,17.27
2019-05-20T19:16:49.620Z,17.57
2019-05-20T19:19:23.503Z,17.97
2019-05-20T19:21:57.377Z,18.20
2019-05-20T19:24:30.827Z,18.53
2019-05-20T19:27:05.434Z,19.33
2019-05-20T19:29:38.935Z,19.10
2019-05-20T19:32:14.213Z,19.27
2019-05-20T19:34:47.666Z,18.67
2019-05-20T19:37:21.160Z,18.47
2019-05-20T19:39:54.595Z,18.83
2019-05-20T19:42:28.016Z,18.23
2019-05-20T19:45:01.458Z,15.73
2019-05-20T19:47:34.876Z,15.77
2019-05-20T19:50:09.125Z,17.13
2019-05-20T19:52:42.769Z,16.50
2019-05-20T19:55:18.779Z,15.73
2019-05-20T19:57:51.508Z,16.37
2019-05-20T20:00:24.949Z,18.00
2019-05-20T20:02:58.375Z,18.53
2019-05-20T20:05:31.803Z,18.20
2019-05-20T20:08:05.595Z,19.13
2019-05-20T20:10:39.031Z,17.27
2019-05-20T20:13:12.460Z,17.47
2019-05-20T20:15:45.910Z,16.83
2019-05-20T20:18:19.392Z,17.70
2019-05-20T20:20:52.840Z,16.73
2019-05-20T20:23:26.262Z,16.83
2019-05-20T20:25:59.697Z,16.83
2019-05-20T20:28:33.124Z,14.37
2019-05-20T20:31:06.552Z,15.03
2019-05-20T20:33:40.648Z,14.47
2019-05-20T20:36:14.087Z,14.17
2019-05-20T20:38:47.511Z,14.30
2019-05-20T20:41:20.944Z,14.63
2019-05-20T20:43:54.384Z,13.53
2019-05-20T20:46:27.821Z,13.20
2019-05-20T20:49:01.253Z,14.03
2019-05-20T20:51:34.718Z,13.33
2019-05-20T20:54:08.194Z,13.97
2019-05-20T20:56:41.624Z,17.10
2019-05-20T20:59:15.045Z,13.77
2019-05-20T21:01:48.475Z,14.87
2019-05-20T21:04:21.900Z,15.50
2019-05-20T21:06:55.348Z,14.47
2019-05-20T21:09:28.792Z,15.07
2019-05-20T21:12:02.500Z,14.97
2019-05-20T21:14:36.198Z,15.47
2019-05-20T21:17:09.620Z,16.23
2019-05-20T21:19:43.063Z,15.87
2019-05-20T21:22:16.482Z,15.53
2019-05-20T21:24:49.920Z,16.40
2019-05-20T21:27:23.343Z,17.10
2019-05-20T21:29:56.775Z,18.00
2019-05-20T21:32:30.214Z,17.47
2019-05-20T21:35:03.728Z,16.70
2019-05-20T21:37:37.148Z,19.30
2019-05-20T21:40:10.944Z,18.57
2019-05-20T21:42:44.373Z,19.10
2019-05-20T21:45:17.802Z,19.00
2019-05-20T21:47:51.220Z,19.60
2019-05-20T21:50:24.664Z,21.17
2019-05-20T21:52:58.089Z,20.10
2019-05-20T21:55:31.884Z,19.30
2019-05-20T21:58:05.383Z,21.20
2019-05-20T22:00:41.022Z,21.53
2019-05-20T22:03:23.944Z,21.23
2019-05-20T22:05:49.736Z,20.33
2019-05-20T22:08:23.156Z,19.63
2019-05-20T22:10:56.643Z,20.67
2019-05-20T22:13:30.108Z,20.90
2019-05-20T22:16:05.225Z,21.43
2019-05-20T22:18:38.647Z,19.90
2019-05-20T22:21:13.715Z,20.17
2019-05-20T22:23:51.729Z,18.50
2019-05-20T22:26:25.156Z,19.77
2019-05-20T22:28:58.788Z,19.93
2019-05-20T22:31:32.224Z,20.97
2019-05-20T22:34:05.655Z,19.53
2019-05-20T22:36:39.082Z,19.93
2019-05-20T22:39:12.604Z,19.70
2019-05-20T22:41:46.324Z,18.40
2019-05-20T22:44:19.956Z,18.90
2019-05-20T22:46:53.552Z,19.37
2019-05-20T22:49:26.980Z,18.93
2019-05-20T22:52:00.432Z,18.63
2019-05-20T22:54:33.836Z,18.17
2019-05-20T22:57:07.301Z,17.13
2019-05-20T22:59:40.788Z,17.30
2019-05-20T23:02:14.291Z,16.37
2019-05-20T23:04:47.732Z,16.30
2019-05-20T23:07:21.175Z,15.93
2019-05-20T23:09:54.595Z,15.13
2019-05-20T23:12:28.039Z,15.40
2019-05-20T23:15:01.722Z,14.77
2019-05-20T23:17:35.455Z,16.97
2019-05-20T23:20:09.579Z,15.73
2019-05-20T23:22:43.016Z,14.40
2019-05-20T23:25:16.440Z,15.73
2019-05-20T23:27:49.873Z,15.30
2019-05-20T23:30:23.466Z,14.63
2019-05-20T23:32:56.928Z,15.23
2019-05-20T23:35:30.424Z,15.03
2019-05-20T23:38:03.860Z,15.63
2019-05-20T23:40:37.855Z,16.20
2019-05-20T23:43:11.292Z,15.83
2019-05-20T23:45:44.717Z,16.77
2019-05-20T23:48:18.155Z,16.30
2019-05-20T23:50:51.576Z,16.40
2019-05-20T23:53:25.007Z,16.67
2019-05-20T23:55:58.521Z,17.23
2019-05-20T23:58:31.940Z,17.00
